Walkerville, Michigan
Current Conditions -  °F | °C
As of 10:53 AM on Friday 28 Nov 2014 (Local Time) from KFFX Reporting Station
Light Snow Light Snow  
Wind Chill: 14°   Ceiling: 2900
Heat Index: 23°   Visibility: 5mi
Dew Point: 18°   Wind: 7mph
Humidity: 81%   Direction: 150°SSE
Pressure: 30.23"   Gusts: NA
Location:  43.71°N, 86.12°W
Report Text: KFFX 281553Z AUTO 15006KT 5SM -SN SCT023 OVC029 M05/M08 A3023 RMK AO2 T10521080
Loading
Personal Weather Stations






























Interactive Weather Map New forecast layout! Learn more

10-Day Weather Forecast

Advertisements
Track Severe Weather on mobile